Latest Weather Observations for Fitzroy Crossing

IDW60801

Issued at 3:32 pm WST Sunday 29 May 2016 (issued every 30 minutes, with the page automatically refreshed every 10 minutes)

About weather observations | Map of weather stations | Latest weather observations for WA | Other Formats
Station Details ID: 003093 Name: FITZROY CROSSING AERO Lat: -18.18 Lon: 125.56 Height: 114.5 m
Data from the previous 72 hours. | See also: Recent months at Fitzroy Crossing
Date/Time
WST
Temp
°C
App
Temp
°C
Dew
Point
Rel
Hum
%
Delta-T
°C
Wind Press
QNH
hPa
Press
MSL
hPa
Rain
since 9 am
mm
Dir
 
Spd
km/h
Gust
km/h
Spd
kts
Gust
kts
29/03:30pm 34.5 34.8 13.3 27 12.9 NW 4 9 2 5 1010.7 1010.2 0.0
29/03:00pm 34.3 34.2 13.2 28 12.8 NNW 6 9 3 5 1010.8 1010.3 0.0
29/02:30pm 34.9 35.1 12.0 25 13.7 E 2 9 1 5 1010.9 1010.4 0.0
29/02:00pm 34.6 34.4 12.9 27 13.2 SSE 6 11 3 6 1010.8 1010.3 0.0
29/01:30pm 34.2 34.6 11.4 25 13.5 CALM 0 6 0 3 1011.2 1010.7 0.0
29/01:00pm 34.1 33.7 12.4 26 13.0 E 6 13 3 7 1011.4 1010.9 0.0
29/12:30pm 34.3 34.2 13.2 28 12.8 SSE 6 13 3 7 1012.1 1011.6 0.0
29/12:00pm 33.6 33.1 12.6 28 12.6 E 7 15 4 8 1012.8 1012.3 0.0
29/11:30am 33.6 33.2 13.1 29 12.4 E 7 15 4 8 1013.1 1012.6 0.0
29/11:00am 32.0 31.3 13.2 31 11.3 E 9 17 5 9 1013.5 1013.0 0.0
29/10:30am 32.0 31.5 13.7 33 11.1 E 9 15 5 8 1013.9 1013.3 0.0
29/10:00am 30.6 29.7 13.8 35 10.2 ENE 11 17 6 9 1014.3 1013.7 0.0
29/09:30am 30.4 28.9 13.2 35 10.3 E 13 19 7 10 1014.5 1013.9 0.0
29/09:00am 29.4 28.2 14.0 39 9.3 E 13 17 7 9 1014.7 1014.1 0.0
29/08:30am 28.0 28.0 14.3 43 8.3 E 7 13 4 7 1014.6 1014.0 0.0
29/08:00am 26.0 26.2 14.8 50 6.8 E 7 11 4 6 1014.5 1013.9 0.0
29/07:30am 24.7 25.8 14.5 53 6.1 E 2 9 1 5 1014.3 1013.7 0.0
29/07:00am 21.8 23.6 15.6 68 3.7 CALM 0 0 0 0 1014.1 1013.5 0.0
29/06:30am 19.6 21.2 15.0 75 2.7 CALM 0 0 0 0 1013.7 1013.2 0.0
29/06:00am 19.2 19.7 14.9 76 2.5 NNW 6 7 3 4 1013.5 1013.0 0.0
29/05:30am 19.0 19.0 15.1 78 2.3 NNW 9 9 5 5 1013.1 1012.6 0.0
29/05:00am 18.9 19.4 15.6 81 2.0 N 7 7 4 4 1012.8 1012.3 0.0
29/04:30am 19.3 21.1 15.6 79 2.2 CALM 0 0 0 0 1012.6 1012.1 0.0
29/04:00am 19.2 20.9 15.3 78 2.3 CALM 0 0 0 0 1012.6 1012.1 0.0
29/03:30am 19.7 21.5 15.6 77 2.4 CALM 0 0 0 0 1012.3 1011.8 0.0
29/03:00am 19.8 21.7 15.7 77 2.4 CALM 0 0 0 0 1012.1 1011.6 0.0
29/02:30am 20.1 21.8 15.3 74 2.8 CALM 0 0 0 0 1012.2 1011.7 0.0
29/02:00am 20.3 20.9 15.3 73 3.0 NNW 6 7 3 4 1012.2 1011.7 0.0
29/01:30am 20.5 22.2 15.3 72 3.1 CALM 0 0 0 0 1012.2 1011.7 0.0
29/01:00am 21.1 22.9 15.6 71 3.3 CALM 0 0 0 0 1012.2 1011.7 0.0
29/12:30am 21.7 23.4 15.3 67 3.8 CALM 0 0 0 0 1012.5 1012.0 0.0
29/12:00am 21.9 23.5 15.0 65 4.1 CALM 0 0 0 0 1012.6 1012.1 0.0
 
Date/Time
WST
Temp
°C
App
Temp
°C
Dew
Point
Rel
Hum
%
Delta-T
°C
Wind Press
QNH
hPa
Press
MSL
hPa
Rain
since 9 am
mm
Dir
 
Spd
km/h
Gust
km/h
Spd
kts
Gust
kts
28/11:30pm 23.6 23.4 14.6 57 5.4 S 9 13 5 7 1012.7 1012.2 0.0
28/11:00pm 24.0 23.2 15.0 57 5.4 S 13 13 7 7 1013.0 1012.5 0.0
28/10:30pm 24.2 23.8 15.1 56 5.5 SSW 11 13 6 7 1013.0 1012.5 0.0
28/10:00pm 25.2 24.3 14.9 52 6.2 S 13 17 7 9 1013.0 1012.5 0.0
28/09:30pm 25.7 24.4 14.8 51 6.6 SSW 15 17 8 9 1013.1 1012.6 0.0
28/09:00pm 25.6 24.6 14.7 51 6.6 SSW 13 15 7 8 1013.2 1012.7 0.0
28/08:30pm 26.1 25.6 14.9 50 6.8 SSW 11 13 6 7 1013.2 1012.7 0.0
28/08:00pm 25.9 25.8 15.0 51 6.6 SW 9 11 5 6 1013.2 1012.7 0.0
28/07:30pm 26.3 26.2 15.0 49 6.8 SW 9 11 5 6 1013.0 1012.5 0.0
28/07:00pm 26.4 26.4 15.1 49 6.9 SW 9 11 5 6 1012.7 1012.2 0.0
28/06:30pm 26.9 27.1 14.6 46 7.4 SW 7 9 4 5 1012.4 1011.9 0.0
28/06:00pm 27.7 27.9 14.7 45 7.9 SW 7 9 4 5 1012.1 1011.6 0.0
28/05:30pm 28.7 28.3 14.1 40 8.8 SSW 9 11 5 6 1011.8 1011.3 0.0
28/05:00pm 30.2 29.4 13.9 37 9.9 SSW 11 13 6 7 1011.4 1010.9 0.0
28/04:30pm 31.9 30.6 13.6 32 11.1 SSW 13 17 7 9 1011.2 1010.7 0.0
28/04:00pm 32.8 31.0 13.4 30 11.8 SSW 15 20 8 11 1011.1 1010.6 0.0
28/03:30pm 33.5 32.9 13.5 29 12.2 SSE 9 11 5 6 1010.9 1010.4 0.0
28/03:00pm 33.7 33.0 13.2 29 12.4 S 9 15 5 8 1011.0 1010.5 0.0
28/02:30pm 33.6 32.7 12.6 28 12.6 SSE 9 15 5 8 1011.1 1010.6 0.0
28/02:00pm 33.8 33.8 14.3 31 12.0 SE 7 22 4 12 1011.5 1011.0 0.0
28/01:30pm 33.3 33.1 12.9 29 12.3 SSW 6 17 3 9 1011.9 1011.4 0.0
28/01:00pm 33.1 32.2 12.7 29 12.3 S 9 19 5 10 1012.3 1011.8 0.0
28/12:30pm 33.0 31.9 13.1 30 12.0 SSE 11 17 6 9 1012.9 1012.4 0.0
28/12:00pm 32.3 31.3 13.5 32 11.4 ESE 11 17 6 9 1013.3 1012.8 0.0
28/11:30am 31.8 31.4 14.0 34 10.8 NE 9 15 5 8 1013.6 1013.1 0.0
28/11:00am 31.6 30.9 14.3 35 10.6 E 11 15 6 8 1014.4 1013.8 0.0
28/10:30am 30.5 30.1 14.2 37 9.9 ENE 9 13 5 7 1014.9 1014.3 0.0
28/10:00am 30.0 29.1 13.7 37 9.8 ENE 11 17 6 9 1015.4 1014.8 0.0
28/09:30am 28.7 27.6 13.0 38 9.3 E 11 15 6 8 1015.8 1015.2 0.0
28/09:00am 27.9 27.5 14.2 43 8.2 E 9 15 5 8 1016.0 1015.4 0.0
28/08:30am 26.4 26.4 15.1 49 6.9 SE 9 13 5 7 1016.1 1015.5 0.0
28/08:00am 25.3 25.4 14.4 50 6.5 E 7 11 4 6 1015.8 1015.2 0.0
28/07:30am 23.9 24.4 14.9 57 5.4 SE 6 7 3 4 1015.5 1014.9 0.0
28/07:00am 21.8 22.2 15.2 66 3.9 SSE 7 11 4 6 1015.3 1014.7 0.0
28/06:30am 19.7 21.5 15.6 77 2.4 CALM 0 0 0 0 1015.1 1014.5 0.0
28/06:00am 18.7 20.5 15.4 81 1.9 CALM 0 0 0 0 1015.0 1014.4 0.0
28/05:30am 18.4 20.0 14.9 80 2.0 CALM 0 0 0 0 1014.8 1014.2 0.0
28/05:00am 18.7 20.3 15.0 79 2.2 CALM 0 0 0 0 1014.7 1014.1 0.0
28/04:30am 19.8 20.3 15.0 74 2.8 SSE 6 7 3 4 1014.6 1014.0 0.0
28/04:00am 19.0 20.7 15.1 78 2.3 CALM 0 0 0 0 1014.4 1013.8 0.0
28/03:30am 20.0 21.2 15.0 73 3.0 SSE 2 6 1 3 1014.2 1013.6 0.0
28/03:00am 20.7 20.9 14.8 69 3.5 S 7 9 4 5 1014.2 1013.6 0.0
28/02:30am 21.0 21.3 14.9 68 3.6 SSW 7 9 4 5 1014.1 1013.5 0.0
28/02:00am 21.5 21.3 14.6 65 4.1 S 9 11 5 6 1014.0 1013.4 0.0
28/01:30am 22.0 21.9 14.9 64 4.2 S 9 11 5 6 1014.1 1013.5 0.0
28/01:00am 22.6 22.0 14.7 61 4.7 SSE 11 15 6 8 1014.2 1013.6 0.0
28/12:30am 22.8 21.9 14.9 61 4.7 S 13 17 7 9 1014.3 1013.7 0.0
28/12:00am 21.8 21.8 15.2 66 3.9 SW 9 15 5 8 1014.3 1013.7 0.0
 
Date/Time
WST
Temp
°C
App
Temp
°C
Dew
Point
Rel
Hum
%
Delta-T
°C
Wind Press
QNH
hPa
Press
MSL
hPa
Rain
since 9 am
mm
Dir
 
Spd
km/h
Gust
km/h
Spd
kts
Gust
kts
27/11:30pm 23.6 23.9 14.6 57 5.4 SE 6 7 3 4 1014.3 1013.7 0.0
27/11:00pm 24.6 23.9 14.4 53 6.1 SE 11 15 6 8 1014.3 1013.7 0.0
27/10:30pm 25.7 24.6 14.2 49 6.9 SSE 13 19 7 10 1014.3 1013.7 0.0
27/10:00pm 26.1 25.1 14.6 49 6.9 SSE 13 19 7 10 1014.4 1013.8 0.0
27/09:30pm 26.0 25.2 15.1 51 6.6 SSE 13 17 7 9 1014.4 1013.8 0.0
27/09:00pm 26.6 25.4 15.0 49 7.0 S 15 19 8 10 1014.3 1013.7 0.0
27/08:30pm 25.9 24.9 15.6 53 6.3 S 15 17 8 9 1014.2 1013.6 0.0
27/08:00pm 26.1 25.8 15.5 52 6.5 S 11 13 6 7 1014.1 1013.5 0.0
27/07:30pm 26.6 25.9 15.3 50 6.9 SSW 13 15 7 8 1014.1 1013.5 0.0
27/07:00pm 26.8 26.4 15.2 49 7.1 SSW 11 13 6 7 1014.0 1013.4 0.0
27/06:30pm 27.3 27.2 15.0 47 7.5 SSW 9 11 5 6 1013.5 1013.0 0.0
27/06:00pm 28.0 27.9 15.0 45 7.9 SSW 9 9 5 5 1013.2 1012.7 0.0
27/05:30pm 29.0 28.7 14.4 41 8.9 SSW 9 13 5 7 1013.0 1012.5 0.0
27/05:00pm 30.7 29.9 13.9 36 10.2 SSW 11 15 6 8 1012.7 1012.2 0.0
27/04:30pm 32.3 30.7 14.0 33 11.2 SSW 15 20 8 11 1012.4 1011.9 0.0
27/04:00pm 33.1 31.4 13.7 31 11.8 SSW 15 20 8 11 1012.3 1011.8 0.0
27/03:30pm 33.5 31.1 12.5 28 12.6 S 17 22 9 12 1012.2 1011.7 0.0
27/03:00pm 34.1 33.5 13.5 28 12.6 SSE 9 17 5 9 1012.1 1011.6 0.0
27/02:30pm 34.2 32.7 13.1 28 12.8 S 13 20 7 11 1012.2 1011.7 0.0
27/02:00pm 34.3 33.0 13.7 29 12.6 SSE 13 20 7 11 1012.3 1011.8 0.0
27/01:30pm 34.3 33.0 13.7 29 12.6 S 13 24 7 13 1012.5 1012.0 0.0
27/01:00pm 34.4 33.3 14.3 30 12.4 SSW 13 20 7 11 1013.0 1012.5 0.0
27/12:30pm 33.5 32.1 13.5 29 12.2 SSE 13 24 7 13 1013.4 1012.9 0.0
27/12:00pm 33.6 32.6 14.6 31 11.8 SSE 13 20 7 11 1014.1 1013.5 0.0
27/11:30am 33.0 31.1 14.1 32 11.6 SE 17 24 9 13 1014.5 1013.9 0.0
27/11:00am 32.6 31.0 13.8 32 11.4 SE 15 20 8 11 1014.8 1014.2 0.0
27/10:30am 31.7 30.6 14.4 35 10.6 SE 13 20 7 11 1015.3 1014.7 0.0
27/10:00am 30.8 29.9 14.8 37 9.8 SE 13 24 7 13 1015.7 1015.1 0.0
27/09:30am 30.0 29.9 16.1 43 8.7 ESE 11 17 6 9 1016.1 1015.5 0.0
27/09:00am 28.8 29.5 17.0 49 7.4 SSE 9 13 5 7 1016.4 1015.8 0.0
27/08:30am 27.9 28.9 16.8 50 7.0 SSE 7 13 4 7 1016.5 1015.9 0.0
27/08:00am 25.7 28.6 18.1 63 4.8 CALM 0 0 0 0 1016.1 1015.5 0.0
27/07:30am 24.0 27.2 18.9 73 3.3 CALM 0 0 0 0 1015.9 1015.3 0.0
27/07:00am 21.7 24.6 18.1 80 2.2 CALM 0 0 0 0 1015.5 1014.9 0.0
27/06:30am 20.3 22.6 17.7 85 1.6 NNW 2 7 1 4 1015.2 1014.6 0.0
27/06:00am 19.9 22.5 17.5 86 1.5 CALM 0 0 0 0 1015.0 1014.4 0.0
27/05:30am 19.7 20.9 16.9 84 1.7 WNW 6 6 3 3 1014.8 1014.2 0.0
27/05:00am 19.8 20.9 17.0 84 1.7 NNW 7 7 4 4 1014.6 1014.0 0.0
27/04:30am 19.9 21.1 17.3 85 1.6 N 7 9 4 5 1014.5 1013.9 0.0
27/04:00am 20.0 21.2 17.4 85 1.6 NNW 7 9 4 5 1014.3 1013.7 0.0
27/03:30am 19.7 20.9 16.9 84 1.7 NW 6 7 3 4 1014.4 1013.8 0.0
27/03:00am 20.9 23.6 17.7 82 2.0 CALM 0 0 0 0 1014.4 1013.8 0.0
27/02:30am 20.4 21.7 17.6 84 1.7 S 7 9 4 5 1014.4 1013.8 0.0
27/02:00am 20.8 23.4 17.6 82 2.0 CALM 0 0 0 0 1014.4 1013.8 0.0
27/01:30am 21.3 24.0 17.7 80 2.2 CALM 0 0 0 0 1014.3 1013.7 0.0
27/01:00am 21.4 24.0 17.6 79 2.4 CALM 0 0 0 0 1014.3 1013.7 0.0
27/12:30am 22.0 24.7 17.8 77 2.6 CALM 0 0 0 0 1014.5 1013.9 0.0
27/12:00am 21.9 24.5 17.5 76 2.7 CALM 0 0 0 0 1014.4 1013.8 0.0
 
Date/Time
WST
Temp
°C
App
Temp
°C
Dew
Point
Rel
Hum
%
Delta-T
°C
Wind Press
QNH
hPa
Press
MSL
hPa
Rain
since 9 am
mm
Dir
 
Spd
km/h
Gust
km/h
Spd
kts
Gust
kts
26/11:30pm 21.4 24.0 17.6 79 2.4 CALM 0 0 0 0 1014.4 1013.8 0.0
26/11:00pm 22.1 24.5 17.0 73 3.1 CALM 0 0 0 0 1014.6 1014.0 0.0
26/10:30pm 23.7 26.4 17.7 69 3.8 CALM 0 0 0 0 1014.6 1014.0 0.0
26/10:00pm 24.8 26.6 17.3 63 4.7 SSW 4 9 2 5 1014.7 1014.1 0.0
26/09:30pm 25.2 25.5 17.1 60 5.0 SSW 11 13 6 7 1014.7 1014.1 0.0
26/09:00pm 25.9 26.2 17.0 58 5.6 SSW 11 13 6 7 1014.7 1014.1 0.0
26/08:30pm 26.2 26.4 16.7 56 5.9 SSW 11 13 6 7 1014.7 1014.1 0.0
26/08:00pm 26.4 26.7 16.9 56 5.9 S 11 13 6 7 1014.6 1014.0 0.0
26/07:30pm 26.8 27.5 17.0 55 6.1 SSW 9 11 5 6 1014.6 1014.0 0.0
26/07:00pm 27.0 27.3 16.9 54 6.3 SSW 11 11 6 6 1014.4 1013.8 0.0
26/06:30pm 27.2 28.4 17.4 55 6.2 SSW 7 7 4 4 1014.1 1013.5 0.0
26/06:00pm 27.9 29.3 17.7 53 6.5 SSW 7 11 4 6 1013.7 1013.2 0.0
26/05:30pm 29.1 29.4 17.0 48 7.6 S 11 13 6 7 1013.3 1012.8 0.0
26/05:00pm 30.4 32.7 17.8 46 8.1 SSE 2 7 1 4 1013.1 1012.6 0.0
26/04:30pm 32.2 34.2 16.1 38 10.1 CALM 0 0 0 0 1012.8 1012.3 0.0
26/04:00pm 32.9 33.5 15.4 35 10.9 SSE 6 9 3 5 1012.6 1012.1 0.0

Other Formats:

Comma delimited format used in spreadsheet applications
http://www.bom.gov.au/fwo/IDW60801/IDW60801.94206.axf

JavaScript Object Notation format (JSON) in row-major order
http://www.bom.gov.au/fwo/IDW60801/IDW60801.94206.json